createdAt,value
2017-02-16T00:36:17.578Z,73.92
2017-02-16T00:37:05.046Z,73.73
2017-02-16T00:37:53.972Z,74.21
2017-02-16T00:38:42.464Z,74.11
2017-02-16T00:39:30.947Z,74.11
2017-02-16T00:40:20.048Z,73.92
2017-02-16T00:41:08.249Z,74.21
2017-02-16T00:41:56.928Z,73.92
2017-02-16T00:42:45.305Z,74.49
2017-02-16T00:43:33.946Z,74.3
2017-02-16T00:44:22.940Z,73.92
2017-02-16T00:45:11.023Z,74.11
2017-02-16T00:45:55.721Z,74.21
2017-02-16T00:46:36.088Z,74.36
2017-02-16T00:47:17.192Z,74.45
2017-02-16T01:31:48.489Z,75.12
2017-02-16T01:32:37.172Z,75.02
2017-02-16T01:33:26.173Z,75.21
2017-02-16T01:34:14.739Z,74.64
2017-02-16T01:35:03.225Z,74.64
2017-02-16T01:35:51.796Z,74.45
2017-02-16T01:36:40.713Z,74.83
2017-02-16T01:37:28.978Z,74.45
2017-02-16T01:38:17.830Z,74.64
2017-02-16T01:39:06.375Z,74.93
2017-02-16T01:39:55.200Z,74.64
2017-02-16T01:40:43.950Z,74.45
2017-02-16T01:41:32.506Z,74.55
2017-02-16T01:42:21.263Z,74.55
2017-02-16T01:43:09.814Z,74.55
2017-02-16T01:43:58.514Z,74.64
2017-02-16T01:44:47.517Z,74.55
2017-02-16T01:45:36.765Z,74.64
2017-02-16T01:46:25.421Z,74.36
2017-02-16T01:47:13.745Z,75.4
2017-02-16T01:48:02.799Z,75.12
2017-02-16T01:48:52.462Z,75.12
2017-02-16T01:49:39.915Z,75.4
2017-02-16T01:50:28.627Z,75.4
2017-02-16T01:51:16.894Z,75.4
2017-02-16T01:52:06.219Z,75.49
2017-02-16T01:52:55.110Z,75.78
2017-02-16T01:53:44.395Z,75.68
2017-02-16T01:54:32.503Z,75.68
2017-02-16T01:55:21.662Z,75.31
2017-02-16T01:56:09.894Z,75.87
2017-02-16T01:56:58.444Z,75.68
2017-02-16T01:57:47.702Z,75.49
2017-02-16T01:58:36.242Z,75.68
2017-02-16T01:59:24.975Z,75.4
2017-02-16T02:00:13.193Z,75.4
2017-02-16T02:01:02.205Z,75.59
2017-02-16T02:01:50.406Z,75.49
2017-02-16T02:02:38.980Z,75.68
2017-02-16T02:03:27.676Z,75.59
2017-02-16T02:04:14.714Z,75.59
2017-02-16T02:05:03.648Z,75.31
2017-02-16T02:05:52.727Z,75.49
2017-02-16T02:06:41.138Z,75.59
2017-02-16T02:07:29.508Z,75.68
2017-02-16T02:08:18.342Z,75.31
2017-02-16T02:09:06.818Z,75.49
2017-02-16T02:09:55.582Z,75.68
2017-02-16T02:10:44.058Z,75.87
2017-02-16T02:11:32.727Z,75.49
2017-02-16T02:12:21.600Z,75.68
2017-02-16T02:13:10.049Z,75.59
2017-02-16T02:13:58.482Z,75.49
2017-02-16T02:14:47.479Z,75.21
2017-02-16T02:15:35.954Z,75.49
2017-02-16T02:16:24.241Z,75.49
2017-02-16T02:17:12.899Z,75.4
2017-02-16T02:18:01.734Z,75.87
2017-02-16T02:18:49.869Z,75.31
2017-02-16T02:19:34.638Z,75.4
2017-02-16T02:20:15.109Z,75.59
2017-02-16T02:20:55.484Z,75.64
2017-02-16T02:21:35.871Z,75.55
2017-02-16T02:22:16.272Z,75.36
2017-02-16T02:22:58.606Z,76.02
2017-02-16T02:23:39.018Z,76.21
2017-02-16T02:24:19.451Z,76.31
2017-02-16T02:24:59.810Z,76.12
2017-02-16T02:25:40.208Z,76.12
2017-02-16T02:26:20.644Z,76.15
2017-02-16T02:27:01.600Z,76.02
2017-02-16T02:27:42.016Z,76.02
2017-02-16T02:28:23.285Z,76.15
2017-02-16T02:29:03.688Z,76.34
2017-02-16T02:29:44.091Z,76.34
2017-02-16T02:30:24.481Z,76.31
2017-02-16T02:31:04.873Z,76.31
2017-02-16T02:31:48.188Z,76.34
2017-02-16T02:32:30.215Z,76.31
2017-02-16T02:33:11.437Z,76.34
2017-02-16T02:33:53.649Z,76.02
2017-02-16T02:34:34.057Z,76.12
2017-02-16T02:35:16.263Z,76.15
2017-02-16T02:35:56.684Z,75.36
2017-02-16T02:36:37.102Z,75.83
2017-02-16T02:37:17.598Z,75.64
2017-02-16T02:37:58.421Z,76.02
2017-02-16T02:38:38.893Z,76.02
2017-02-16T02:39:19.290Z,76.21
2017-02-16T02:40:00.462Z,76.12
2017-02-16T02:42:18.926Z,76.12
2017-02-16T02:43:06.360Z,76.12
2017-02-16T02:43:55.053Z,75.83
2017-02-16T02:44:43.233Z,75.93
2017-02-16T02:45:32.071Z,75.83
2017-02-16T07:46:30.816Z,77.73
2017-02-16T07:47:19.122Z,78.11
2017-02-16T07:48:07.847Z,77.88
2017-02-16T07:48:56.483Z,77.78
2017-02-16T07:52:51.883Z,77.64
2017-02-16T07:53:40.808Z,77.83
2017-02-16T07:55:31.051Z,77.64
2017-02-16T07:56:17.079Z,77.45
2017-02-16T07:57:05.666Z,77.64
2017-02-16T07:57:54.578Z,77.83
2017-02-16T07:58:43.088Z,77.73
2017-02-16T07:59:31.283Z,77.64
2017-02-16T08:00:19.873Z,77.64
2017-02-16T08:01:08.459Z,77.16
2017-02-16T08:01:57.289Z,76.97
2017-02-16T08:02:45.742Z,77.73
2017-02-16T08:03:39.079Z,77.54
2017-02-16T08:04:30.440Z,77.73
2017-02-16T08:06:30.306Z,77.25
2017-02-16T08:07:18.689Z,77.45
2017-02-16T08:08:07.042Z,77.64
2017-02-16T08:08:56.186Z,77.45
2017-02-16T08:09:45.189Z,77.64
2017-02-16T08:10:33.795Z,77.83
2017-02-16T08:11:22.517Z,77.83
2017-02-16T08:12:11.010Z,77.45
2017-02-16T08:13:00.290Z,77.73
2017-02-16T08:13:49.469Z,77.35
2017-02-16T08:14:37.656Z,77.64
2017-02-16T08:15:24.944Z,77.73
2017-02-16T08:16:13.845Z,77.83
2017-02-16T08:17:02.229Z,77.48
2017-02-16T08:17:50.824Z,77.11
2017-02-16T08:18:39.583Z,77.06
2017-02-16T08:19:28.002Z,77.16
2017-02-16T08:20:16.512Z,77.06
2017-02-16T08:21:05.390Z,77.06
2017-02-16T08:21:53.968Z,77.01
2017-02-16T08:22:42.315Z,77.01
2017-02-16T08:23:30.524Z,77.25
2017-02-16T08:24:19.704Z,77.11
2017-02-16T08:25:07.916Z,77.11
2017-02-16T08:25:56.445Z,77.06
2017-02-16T08:26:45.005Z,76.97
2017-02-16T08:27:33.863Z,76.97
2017-02-16T08:28:22.071Z,77.2
2017-02-16T08:29:10.723Z,77.06
2017-02-16T08:29:59.457Z,77.01
2017-02-16T08:30:48.056Z,77.11
2017-02-16T08:31:36.649Z,77.2
2017-02-16T08:32:24.933Z,77.01
2017-02-16T08:33:13.615Z,77.01
2017-02-16T08:34:02.648Z,77.48
2017-02-16T08:34:51.315Z,77.2
2017-02-16T08:38:44.840Z,77.2
2017-02-16T08:41:04.577Z,76.73
2017-02-16T08:41:53.163Z,76.92
2017-02-16T08:42:41.708Z,76.73
2017-02-16T08:43:30.209Z,76.54
2017-02-16T08:44:18.750Z,76.63
2017-02-16T08:47:42.152Z,76.57
2017-02-16T08:48:30.607Z,76.76
2017-02-16T08:49:19.342Z,76.29
2017-02-16T08:50:07.920Z,76.2
2017-02-16T08:50:56.374Z,76.48
2017-02-16T08:51:45.017Z,76.57
2017-02-16T08:52:33.783Z,76.39
2017-02-16T08:53:22.144Z,76.39
2017-02-16T08:54:10.956Z,76.29
2017-02-16T08:54:59.235Z,75.72
2017-02-16T09:00:24.699Z,75.57
2017-02-16T09:01:12.826Z,75.47
2017-02-16T09:36:58.404Z,74.41
2017-02-16T09:48:37.003Z,74.44
2017-02-16T09:49:25.925Z,73.78
2017-02-16T09:54:54.420Z,73.15
2017-02-16T10:48:08.027Z,65.9
2017-02-16T10:48:55.114Z,65.55
2017-02-16T10:49:40.973Z,64.72
2017-02-16T10:53:03.993Z,62.62
2017-02-16T10:53:52.953Z,61.98
2017-02-16T10:54:41.342Z,61.05
2017-02-16T10:55:30.226Z,59.71
2017-02-16T10:56:18.342Z,59.06
2017-02-16T10:57:07.172Z,58.71
2017-02-16T10:57:55.362Z,58.14
2017-02-16T10:58:43.936Z,57.59
2017-02-16T10:59:33.388Z,57.43
2017-02-16T11:00:21.880Z,56.85
2017-02-16T11:01:10.393Z,55.89
2017-02-16T11:01:58.488Z,55.02
2017-02-16T11:02:47.227Z,55.32
2017-02-16T11:03:35.790Z,55.02
2017-02-16T11:04:22.090Z,54.57
2017-02-16T11:05:10.505Z,53.9
2017-02-16T11:05:59.613Z,53.8
2017-02-16T11:06:47.871Z,53.68
2017-02-16T11:07:36.708Z,53.11
2017-02-16T11:08:24.905Z,53.68
2017-02-16T11:09:13.335Z,53.85
2017-02-16T11:10:02.233Z,54.71
2017-02-16T11:10:50.839Z,54.52
2017-02-16T11:11:39.747Z,54.71
2017-02-16T11:12:27.806Z,54.06
2017-02-16T11:13:14.159Z,53.97
2017-02-16T11:13:59.238Z,53.52
2017-02-16T11:14:41.189Z,53.42
2017-02-16T11:15:23.247Z,52.77
2017-02-16T11:23:57.729Z,49.38
2017-02-16T11:24:45.284Z,49.38
2017-02-16T11:25:33.916Z,49.1
2017-02-16T11:26:22.889Z,49
2017-02-16T11:27:11.301Z,49
2017-02-16T11:27:59.287Z,49.19
2017-02-16T11:28:48.086Z,49.1
2017-02-16T11:29:36.360Z,48.59
2017-02-16T11:30:24.616Z,48.3
2017-02-16T11:31:13.356Z,48.02
2017-02-16T11:31:57.895Z,48.33
2017-02-16T11:32:41.199Z,48.43
2017-02-16T11:34:34.460Z,47.92
2017-02-16T11:35:22.883Z,47.82
2017-02-16T11:37:41.665Z,47.72
2017-02-16T11:38:29.030Z,47.27
2017-02-16T11:39:16.390Z,47.46
2017-02-16T11:40:04.766Z,47.19
2017-02-16T11:40:53.613Z,47
2017-02-16T11:41:35.950Z,46.14
2017-02-16T11:42:17.473Z,45.97
2017-02-16T11:42:58.784Z,45.97
2017-02-16T11:43:41.099Z,45.87
2017-02-16T11:44:23.339Z,45.29
2017-02-16T11:45:09.201Z,45.79
2017-02-16T11:45:51.258Z,45.21
2017-02-16T11:46:34.316Z,44.93
2017-02-16T11:47:14.756Z,44.66
2017-02-16T11:47:55.887Z,44.95
2017-02-16T11:48:38.805Z,44.78
2017-02-16T11:49:19.255Z,44.78
2017-02-16T13:06:12.252Z,40.7
2017-02-16T13:07:00.122Z,40.8
2017-02-16T13:07:48.448Z,40.99
2017-02-16T13:08:37.111Z,40.61
2017-02-16T13:09:26.006Z,40.34
2017-02-16T13:10:14.280Z,40.15
2017-02-16T13:11:03.049Z,39.95
2017-02-16T13:11:51.652Z,39.76
2017-02-16T13:12:40.633Z,39.66
2017-02-16T13:13:29.115Z,39.74
2017-02-16T13:14:18.082Z,39.94
2017-02-16T13:15:06.620Z,40.03
2017-02-16T13:15:55.349Z,40.22
2017-02-16T13:16:44.034Z,40.42
2017-02-16T13:17:32.606Z,40.22
2017-02-16T13:18:21.529Z,40.32
2017-02-16T13:19:09.595Z,40.12
2017-02-16T13:19:58.219Z,40.22
2017-02-16T13:20:47.012Z,40.22
2017-02-16T13:21:35.580Z,40.05
2017-02-16T13:22:24.295Z,40.05
2017-02-16T13:23:12.839Z,39.76
2017-02-16T13:24:01.873Z,39.57
2017-02-16T13:24:50.707Z,39.86
2017-02-16T13:25:39.135Z,39.76
2017-02-16T13:26:27.592Z,39.59
2017-02-16T13:27:16.424Z,39.59
2017-02-16T13:28:05.156Z,39.11
2017-02-16T13:28:55.155Z,38.91
2017-02-16T13:29:39.550Z,38.74
2017-02-16T13:30:22.563Z,38.83
2017-02-16T13:31:04.678Z,38.25
2017-02-16T13:31:45.752Z,38.74
2017-02-16T13:32:26.213Z,38.16
2017-02-16T13:33:09.218Z,38.74
2017-02-16T13:33:49.749Z,38.74
2017-02-16T13:34:30.411Z,38.74
2017-02-16T13:35:11.189Z,38.06
2017-02-16T13:35:51.594Z,38.54
2017-02-16T13:36:32.991Z,38.16
2017-02-16T13:37:13.503Z,37.7
2017-02-16T13:37:53.959Z,37.79
2017-02-16T13:38:34.387Z,37.6
2017-02-16T13:39:14.905Z,37.7
2017-02-16T13:39:56.498Z,37.3
2017-02-16T13:40:37.671Z,37.6
2017-02-16T13:41:18.198Z,37.4
2017-02-16T13:41:58.669Z,37.4
2017-02-16T13:42:39.205Z,37.5
2017-02-16T13:43:19.615Z,37.4
2017-02-16T13:44:01.365Z,37.3
2017-02-16T13:44:42.347Z,37.79
2017-02-16T13:45:22.809Z,37.7
2017-02-16T13:46:03.215Z,37.67
2017-02-16T13:46:45.185Z,37.77
2017-02-16T13:47:29.195Z,37.96
2017-02-16T13:48:09.688Z,37.67
2017-02-16T13:48:51.092Z,37.67
2017-02-16T13:49:31.560Z,37.87
2017-02-16T13:50:11.988Z,37.58
2017-02-16T13:50:52.433Z,37.67
2017-02-16T13:51:32.888Z,37.56
2017-02-16T13:52:13.605Z,38.33
2017-02-16T13:52:54.351Z,38.41
2017-02-16T13:53:36.027Z,38.79
2017-02-16T13:54:16.662Z,38.6
2017-02-16T13:58:08.353Z,38.66
2017-02-16T13:58:55.835Z,39.04
2017-02-16T13:59:44.336Z,39.12
2017-02-16T14:00:33.030Z,38.74
2017-02-16T14:01:21.664Z,39.01
2017-02-16T14:02:10.609Z,39.37
2017-02-16T14:02:58.799Z,39.54
2017-02-16T14:03:47.460Z,39.93
2017-02-16T14:04:36.719Z,39.93
2017-02-16T14:05:25.195Z,39.91
2017-02-16T14:06:13.855Z,40.11
2017-02-16T14:07:03.144Z,40.3
2017-02-16T14:07:51.380Z,40.28
2017-02-16T14:08:40.214Z,40.08
2017-02-16T14:09:28.920Z,40.37
2017-02-16T14:10:17.606Z,40.64
2017-02-16T14:11:05.940Z,41.02
2017-02-16T14:11:54.652Z,41
2017-02-16T14:12:43.275Z,41.39
2017-02-16T14:13:31.881Z,41.96
2017-02-16T14:14:21.079Z,41.96
2017-02-16T14:15:09.587Z,41.87
2017-02-16T14:15:57.923Z,41.85
2017-02-16T14:16:46.476Z,42.52
2017-02-16T14:17:35.007Z,42.69
2017-02-16T14:18:23.784Z,42.69
2017-02-16T14:19:12.229Z,42.79
2017-02-16T14:20:01.127Z,42.98
2017-02-16T14:20:50.061Z,43.15
2017-02-16T14:21:38.434Z,43.53
2017-02-16T14:22:27.697Z,43.73
2017-02-16T14:23:15.781Z,43.44
2017-02-16T14:24:04.314Z,43.63
2017-02-16T14:24:53.327Z,43.34
2017-02-16T14:25:41.971Z,43.73
2017-02-16T14:26:26.783Z,43.73
2017-02-16T14:27:07.164Z,43.73
2017-02-16T14:27:47.638Z,43.53
2017-02-16T14:28:29.557Z,43.91
2017-02-16T14:29:10.755Z,43.82
2017-02-16T14:29:51.162Z,43.73
2017-02-16T14:30:31.689Z,43.73
2017-02-16T14:31:12.921Z,43.73
2017-02-16T14:31:53.562Z,44.01
2017-02-16T14:32:33.943Z,43.91
2017-02-16T14:33:14.385Z,43.73
2017-02-16T14:33:55.431Z,44.11
2017-02-16T14:34:35.905Z,43.82
2017-02-16T14:35:16.668Z,44.3
2017-02-16T14:35:57.290Z,44.3
2017-02-16T14:36:37.563Z,44.3
2017-02-16T14:37:17.924Z,43.91
2017-02-16T20:04:51.510Z,97.74
2017-02-16T20:14:01.615Z,98.41
2017-02-16T20:14:50.765Z,98.31
2017-02-16T20:15:45.689Z,98.22
2017-02-16T20:16:41.157Z,98.12
2017-02-16T20:17:41.876Z,98.5
2017-02-16T20:29:52.600Z,98.03
2017-02-16T20:30:36.651Z,98.22
2017-02-16T20:31:17.118Z,98.12
2017-02-16T20:31:57.722Z,98.41
2017-02-16T20:32:38.146Z,98.41
2017-02-16T20:33:18.674Z,98.31
2017-02-16T20:33:59.096Z,98.31
2017-02-16T20:34:39.554Z,98.31
2017-02-16T20:35:19.995Z,98.22
2017-02-16T20:36:00.454Z,98.41
2017-02-16T20:36:40.882Z,98.6
2017-02-16T20:37:21.328Z,98.6
2017-02-16T20:38:01.838Z,98.6
2017-02-16T20:38:42.263Z,98.6
2017-02-16T20:39:22.714Z,98.22
2017-02-16T20:40:03.197Z,98.69
2017-02-16T20:40:43.652Z,98.12
2017-02-16T20:41:24.125Z,98.41
2017-02-16T20:42:04.580Z,98.41
2017-02-16T20:42:45.018Z,98.31
2017-02-16T20:43:25.493Z,98.22
2017-02-16T20:44:05.989Z,98.69
2017-02-16T20:44:46.448Z,98.6
2017-02-16T20:45:26.849Z,98.36
2017-02-16T20:46:07.341Z,98.55
2017-02-16T20:46:47.785Z,98.41
2017-02-16T20:47:28.191Z,98.45
2017-02-16T20:48:08.650Z,98.36
2017-02-16T20:48:49.143Z,98.55
2017-02-16T20:49:29.597Z,98.17
2017-02-16T20:50:10.037Z,99.07
2017-02-16T20:50:50.517Z,99.11
2017-02-16T20:51:31.018Z,98.97
2017-02-16T20:52:11.433Z,98.97
2017-02-16T20:52:51.921Z,99.16
2017-02-16T20:53:32.389Z,98.69
2017-02-16T20:54:12.833Z,98.97
2017-02-16T20:54:53.276Z,98.83
2017-02-16T20:55:33.728Z,98.93
2017-02-16T20:56:14.159Z,98.83
2017-02-16T20:56:54.615Z,98.69
2017-02-16T20:57:35.079Z,99.07
2017-02-16T20:58:15.502Z,98.83
2017-02-16T20:58:55.965Z,98.22
2017-02-16T20:59:36.420Z,99.11
2017-02-16T21:00:16.869Z,98.36
2017-02-16T21:00:57.371Z,98.26
2017-02-16T21:01:37.782Z,98.26
2017-02-16T21:02:18.245Z,98.55
2017-02-16T21:02:58.746Z,98.55
2017-02-16T21:03:39.154Z,98.45
2017-02-16T21:04:19.619Z,98.36
2017-02-16T21:05:00.056Z,98.55
2017-02-16T21:05:41.484Z,98.26
2017-02-16T21:06:21.920Z,98.36
2017-02-16T21:07:02.330Z,99.11
2017-02-16T21:07:42.790Z,98.64
2017-02-16T21:08:23.278Z,98.93
2017-02-16T21:09:03.742Z,98.74
2017-02-16T21:09:44.201Z,99.02
2017-02-16T21:10:24.830Z,98.45
2017-02-16T21:11:05.345Z,98.64
2017-02-16T21:11:45.805Z,98.83
2017-02-16T21:12:26.391Z,98.64
2017-02-16T21:13:06.866Z,98.55
2017-02-16T21:13:47.373Z,98.64
2017-02-16T21:14:27.809Z,98.64
2017-02-16T21:15:08.484Z,98.74
2017-02-16T21:15:49.377Z,99.11
2017-02-16T21:16:29.824Z,99.11
2017-02-16T21:17:10.243Z,99.11
2017-02-16T21:17:50.752Z,99.02
2017-02-16T21:18:31.257Z,99.02
2017-02-16T21:19:11.695Z,98.83
2017-02-16T21:19:52.148Z,99.02
2017-02-16T21:20:33.491Z,98.64
2017-02-16T21:21:13.967Z,98.93
2017-02-16T21:21:55.532Z,99.11
2017-02-16T21:22:36.155Z,98.93
2017-02-16T21:23:16.711Z,99.11
2017-02-16T21:23:57.187Z,98.93
2017-02-16T21:24:37.644Z,98.93
2017-02-16T21:25:18.073Z,98.93
2017-02-16T21:25:58.561Z,99.11
2017-02-16T21:26:39.010Z,99.3
2017-02-16T21:27:20.161Z,99.11
2017-02-16T21:28:00.533Z,98.55
2017-02-16T21:28:41.017Z,99.3
2017-02-16T21:29:21.485Z,99.3
2017-02-16T21:30:01.942Z,98.93
2017-02-16T21:30:42.359Z,98.36
2017-02-16T21:31:22.954Z,99.11
2017-02-16T21:32:03.496Z,98.64
2017-02-16T21:32:44.003Z,98.36
2017-02-16T21:33:24.412Z,98.55
2017-02-16T21:34:05.134Z,98.74
2017-02-16T21:34:46.552Z,98.55
2017-02-16T21:35:27.079Z,98.74
2017-02-16T21:36:07.561Z,98.55
2017-02-16T21:36:48.155Z,98.55
2017-02-16T21:37:28.577Z,98.64
2017-02-16T21:38:09.029Z,98.74
2017-02-16T21:38:49.610Z,98.64
2017-02-16T21:39:30.119Z,98.45
2017-02-16T21:40:10.567Z,98.64
2017-02-16T21:40:51.050Z,98.45
2017-02-16T21:41:31.500Z,98.64
2017-02-16T21:42:11.945Z,98.64
2017-02-16T21:42:52.396Z,98.74
2017-02-16T21:43:32.838Z,99.3
2017-02-16T21:44:13.415Z,99.3
2017-02-16T21:44:53.880Z,99.11
2017-02-16T21:45:34.399Z,98.74
2017-02-16T21:46:14.780Z,99.21
2017-02-16T21:46:55.246Z,99.11
2017-02-16T21:47:36.661Z,98.93
2017-02-16T21:48:17.105Z,99.21
2017-02-16T21:48:57.554Z,99.02
2017-02-16T21:49:37.997Z,99.21
2017-02-16T21:50:18.438Z,99.02
2017-02-16T21:50:58.874Z,99.02
2017-02-16T21:51:39.329Z,99.02
2017-02-16T21:52:19.802Z,98.93
2017-02-16T21:53:00.272Z,99.02
2017-02-16T21:53:40.802Z,98.93
2017-02-16T21:54:21.214Z,98.93
2017-02-16T21:55:01.710Z,99.11
2017-02-16T21:55:42.246Z,99.4
2017-02-16T21:56:22.676Z,98.93
2017-02-16T21:57:03.131Z,98.93
2017-02-16T21:57:43.649Z,99.4
2017-02-16T21:58:24.038Z,99.21
2017-02-16T21:59:04.490Z,99.21
2017-02-16T21:59:44.969Z,99.3
2017-02-16T22:00:25.419Z,99.3
2017-02-16T22:01:05.855Z,99.4
2017-02-16T22:01:46.343Z,99.02
2017-02-16T22:02:26.753Z,99.4
2017-02-16T22:03:07.227Z,99.21
2017-02-16T22:03:47.683Z,99.5
2017-02-16T22:04:28.132Z,99.5
2017-02-16T22:05:08.598Z,99.3
2017-02-16T22:05:49.079Z,99.5
2017-02-16T22:06:29.479Z,99.11
2017-02-16T22:07:09.933Z,99.3
2017-02-16T22:07:50.377Z,99.4
2017-02-16T22:08:30.804Z,99.88
2017-02-16T22:09:11.260Z,99.88
2017-02-16T22:09:51.701Z,99.5
2017-02-16T22:10:32.187Z,99.59
2017-02-16T22:11:12.615Z,99.3
2017-02-16T22:11:53.089Z,99.99
2017-02-16T22:12:33.536Z,99.99
2017-02-16T22:13:13.970Z,99.99
2017-02-16T22:13:54.444Z,99.99
2017-02-16T22:14:34.848Z,99.99
2017-02-16T22:15:15.317Z,99.99
2017-02-16T22:15:55.792Z,99.99
2017-02-16T22:16:36.547Z,99.88
2017-02-16T22:17:16.994Z,99.99
2017-02-16T22:17:57.479Z,99.97
2017-02-16T22:18:37.892Z,99.99
2017-02-16T22:19:18.346Z,99.88
2017-02-16T22:19:58.846Z,99.99
2017-02-16T22:20:39.296Z,99.97
2017-02-16T22:21:19.726Z,99.97
2017-02-16T22:22:00.199Z,99.88
2017-02-16T22:22:40.628Z,99.88
2017-02-16T22:23:21.049Z,99.97
2017-02-16T22:24:03.865Z,99.97
2017-02-16T22:24:44.119Z,99.97
2017-02-16T22:25:24.553Z,99.97
2017-02-16T22:26:05.016Z,99.97
2017-02-16T22:26:45.509Z,99.99
2017-02-16T22:27:25.960Z,99.78
2017-02-16T22:28:06.428Z,99.99
2017-02-16T22:28:46.888Z,99.99
2017-02-16T22:29:27.385Z,99.99
2017-02-16T22:30:07.893Z,99.99
2017-02-16T22:30:48.274Z,99.99
2017-02-16T22:31:28.731Z,99.99
2017-02-16T22:32:09.181Z,99.99
2017-02-16T22:32:49.660Z,99.99
2017-02-16T22:33:30.113Z,99.99
2017-02-16T22:34:10.631Z,99.99
2017-02-16T22:34:51.058Z,99.99
2017-02-16T22:35:31.532Z,99.99
2017-02-16T22:36:11.950Z,99.99
2017-02-16T22:36:52.427Z,99.99
2017-02-16T22:37:32.880Z,99.99
2017-02-16T22:38:13.306Z,99.99
2017-02-16T22:38:53.790Z,99.97
2017-02-16T22:39:34.229Z,99.99
2017-02-16T22:40:14.805Z,99.99
2017-02-16T22:40:55.310Z,99.99
2017-02-16T22:41:35.739Z,99.99
2017-02-16T22:42:16.270Z,99.88
2017-02-16T22:42:56.725Z,99.99
2017-02-16T22:43:37.160Z,99.99
2017-02-16T22:44:17.645Z,99.99
2017-02-16T22:44:58.081Z,99.99
2017-02-16T22:45:38.464Z,99.99
2017-02-16T22:46:18.917Z,99.99
2017-02-16T22:46:59.433Z,99.97
2017-02-16T22:47:39.865Z,99.99
2017-02-16T22:48:20.632Z,99.99
2017-02-16T22:49:01.359Z,99.97
2017-02-16T22:49:41.878Z,99.99
2017-02-16T22:50:22.335Z,99.99
2017-02-16T22:51:02.765Z,99.99
2017-02-16T22:51:43.242Z,99.99
2017-02-16T22:52:23.738Z,99.99
2017-02-16T22:53:04.175Z,99.99
2017-02-16T22:53:44.665Z,99.99
2017-02-16T22:54:25.115Z,99.99
2017-02-16T22:55:05.600Z,99.99
2017-02-16T22:55:46.004Z,99.99
2017-02-16T22:56:26.531Z,99.99
2017-02-16T22:57:07.010Z,99.99
2017-02-16T22:57:47.572Z,99.99
2017-02-16T22:58:28.714Z,99.99
2017-02-16T22:59:09.231Z,99.99
2017-02-16T22:59:49.682Z,99.99
2017-02-16T23:00:30.236Z,99.99
2017-02-16T23:01:10.948Z,99.99
2017-02-16T23:01:51.388Z,99.99
2017-02-16T23:02:31.897Z,99.99
2017-02-16T23:03:12.381Z,99.99
2017-02-16T23:03:52.796Z,99.99
2017-02-16T23:04:33.795Z,99.99
2017-02-16T23:05:14.242Z,99.99
2017-02-16T23:05:54.653Z,99.99
2017-02-16T23:06:35.159Z,99.99
2017-02-16T23:07:15.593Z,99.99
2017-02-16T23:07:56.086Z,99.99
2017-02-16T23:08:36.538Z,99.99
2017-02-16T23:09:17.003Z,99.99
2017-02-16T23:09:57.420Z,99.99
2017-02-16T23:10:38.003Z,99.99
2017-02-16T23:11:18.462Z,99.99
2017-02-16T23:11:58.863Z,99.99
2017-02-16T23:12:39.338Z,99.99
2017-02-16T23:13:19.781Z,99.99
2017-02-16T23:14:00.248Z,99.99
2017-02-16T23:14:40.676Z,99.99
2017-02-16T23:15:21.165Z,99.99
2017-02-16T23:16:01.630Z,99.99
2017-02-16T23:16:42.068Z,99.99
2017-02-16T23:17:22.574Z,99.99
2017-02-16T23:18:03.020Z,99.99
2017-02-16T23:18:43.506Z,99.99
2017-02-16T23:19:24.008Z,99.99
2017-02-16T23:20:04.433Z,99.99
2017-02-16T23:20:44.930Z,99.99
2017-02-16T23:21:25.390Z,99.99
2017-02-16T23:22:05.879Z,99.99
2017-02-16T23:22:46.339Z,99.99
2017-02-16T23:23:26.754Z,99.99
2017-02-16T23:24:07.241Z,99.99
2017-02-16T23:24:47.686Z,99.99
2017-02-16T23:25:28.198Z,99.99
2017-02-16T23:26:08.623Z,99.99
2017-02-16T23:26:49.188Z,99.99
2017-02-16T23:27:29.650Z,99.99
2017-02-16T23:28:10.152Z,99.99
2017-02-16T23:28:50.637Z,99.99
2017-02-16T23:29:31.040Z,99.99
2017-02-16T23:30:11.679Z,99.99
2017-02-16T23:30:52.099Z,99.99
2017-02-16T23:31:32.516Z,99.99
2017-02-16T23:32:13.015Z,99.99
2017-02-16T23:32:53.398Z,99.99
2017-02-16T23:33:33.858Z,99.99
2017-02-16T23:34:14.417Z,99.99
2017-02-16T23:34:54.843Z,99.99
2017-02-16T23:35:35.371Z,99.99
2017-02-16T23:36:15.847Z,99.99
2017-02-16T23:36:56.291Z,99.99
2017-02-16T23:37:36.883Z,99.99
2017-02-16T23:38:17.981Z,99.99
2017-02-16T23:38:58.806Z,99.99
2017-02-16T23:39:39.305Z,99.99
2017-02-16T23:40:19.802Z,99.99
2017-02-16T23:41:00.708Z,99.99
2017-02-16T23:41:41.287Z,99.99
2017-02-16T23:42:21.811Z,99.99
2017-02-16T23:43:02.377Z,99.99
2017-02-16T23:43:42.891Z,99.99
2017-02-16T23:44:23.304Z,99.99
2017-02-16T23:45:03.750Z,99.99
2017-02-16T23:45:44.269Z,99.99
2017-02-16T23:46:24.829Z,99.99
2017-02-16T23:47:05.324Z,99.99
2017-02-16T23:47:45.839Z,99.99
2017-02-16T23:48:26.320Z,99.99
2017-02-16T23:49:06.760Z,99.99
2017-02-16T23:49:47.169Z,99.99
2017-02-16T23:50:27.685Z,99.99
2017-02-16T23:51:08.094Z,99.99
2017-02-16T23:51:48.572Z,99.99
2017-02-16T23:52:29.033Z,99.99
2017-02-16T23:53:09.482Z,99.99
2017-02-16T23:53:49.939Z,99.99
2017-02-16T23:54:30.367Z,99.99
2017-02-16T23:55:10.881Z,99.99
2017-02-16T23:55:51.302Z,99.99
2017-02-16T23:56:31.726Z,99.99
2017-02-16T23:57:12.204Z,99.99
2017-02-16T23:57:52.669Z,99.99
2017-02-16T23:58:33.141Z,99.99
2017-02-16T23:59:13.575Z,99.99
2017-02-16T23:59:54.082Z,99.99
